Time;durP1;ratioP1;P1;durP2;ratioP2;P2;SDS_P1;SDS_P2;PMS_P1;PMS_P2;Temp;Humidity;BMP_temperature;BMP_pressure;BME280_temperature;BME280_humidity;BME280_pressure;Samples;Min_cycle;Max_cycle;Signal;HPM_P1;HPM_P2
2022/03/30 00:01:07;;;;;;;51.83;25.10;;;;;;;7.53;60.39;101013.56;5196561;28;22108;-48
2022/03/30 00:03:40;;;;;;;44.25;23.67;;;;;;;7.56;60.82;101017.75;5195127;28;20422;-47
2022/03/30 00:06:13;;;;;;;45.13;24.42;;;;;;;7.55;60.64;101022.16;5196006;28;20429;-46
2022/03/30 00:08:46;;;;;;;45.42;24.02;;;;;;;7.52;60.64;101021.56;5206431;28;20424;-48
2022/03/30 00:11:20;;;;;;;51.33;25.95;;;;;;;7.56;60.70;101015.94;5186945;28;20414;-48
2022/03/30 00:13:53;;;;;;;47.63;24.83;;;;;;;7.15;60.72;100951.00;5207941;28;20519;-48
2022/03/30 00:16:26;;;;;;;49.97;25.45;;;;;;;7.47;60.75;101014.06;5198210;28;20456;-49
2022/03/30 00:18:59;;;;;;;49.17;25.37;;;;;;;7.50;60.84;101015.63;5197818;28;20554;-51
2022/03/30 00:21:32;;;;;;;47.67;24.95;;;;;;;7.49;60.96;101019.19;5201873;28;20500;-51
2022/03/30 00:24:05;;;;;;;51.13;24.63;;;;;;;7.47;60.91;101013.25;5200010;28;20423;-51
2022/03/30 00:26:38;;;;;;;52.67;26.57;;;;;;;7.44;60.97;101011.69;5202098;28;20526;-54
2022/03/30 00:29:10;;;;;;;47.15;24.98;;;;;;;7.41;60.85;101016.38;5197087;28;20786;-49
2022/03/30 00:31:45;;;;;;;44.53;23.52;;;;;;;7.35;61.05;101005.38;5203809;28;20443;-51
2022/03/30 00:34:17;;;;;;;47.42;25.33;;;;;;;7.39;60.90;101004.16;5202403;28;21003;-49
2022/03/30 00:36:50;;;;;;;51.83;24.17;;;;;;;7.36;61.13;101007.03;5196996;28;20476;-45
2022/03/30 00:39:22;;;;;;;52.85;25.75;;;;;;;7.32;61.00;100999.56;5193162;28;20763;-50
2022/03/30 00:41:55;;;;;;;55.23;26.87;;;;;;;7.24;61.22;100997.53;5204686;28;20712;-50
2022/03/30 00:44:28;;;;;;;48.60;25.08;;;;;;;7.28;61.11;100998.97;5196062;28;20523;-46
2022/03/30 00:47:01;;;;;;;42.95;24.15;;;;;;;7.26;61.40;101000.88;5189537;28;20492;-45
2022/03/30 00:49:34;;;;;;;52.45;25.08;;;;;;;7.23;61.26;100995.88;5160579;28;20830;-47
2022/03/30 00:52:07;;;;;;;46.40;23.17;;;;;;;7.11;61.18;100978.47;5169604;28;22547;-47
2022/03/30 00:54:41;;;;;;;54.78;25.60;;;;;;;7.16;61.38;100990.28;5167333;28;20490;-47
2022/03/30 00:57:18;;;;;;;50.03;23.85;;;;;;;7.19;61.37;100983.13;5151472;28;20411;-47
2022/03/30 00:59:51;;;;;;;48.80;25.45;;;;;;;7.18;61.21;100987.53;5149579;28;20534;-50
2022/03/30 01:02:26;;;;;;;47.97;24.20;;;;;;;7.14;61.46;100975.59;5169004;28;20503;-46
2022/03/30 01:04:58;;;;;;;49.47;24.65;;;;;;;7.09;61.53;100970.75;5160628;28;20419;-48
2022/03/30 01:07:31;;;;;;;50.60;24.77;;;;;;;7.15;61.31;100982.50;5166731;28;21385;-47
2022/03/30 01:10:05;;;;;;;49.35;24.98;;;;;;;7.17;61.44;100983.25;5168747;28;20885;-47
2022/03/30 01:12:39;;;;;;;61.25;27.20;;;;;;;7.17;61.46;100980.59;5160082;28;20772;-49
2022/03/30 01:15:14;;;;;;;56.17;27.15;;;;;;;7.15;61.32;100977.25;5158531;28;20413;-53
2022/03/30 01:17:49;;;;;;;51.42;24.45;;;;;;;7.15;61.29;100977.25;5169242;28;20542;-51
2022/03/30 01:20:22;;;;;;;55.65;25.08;;;;;;;7.16;61.54;100971.91;5165509;28;20930;-54
2022/03/30 01:22:56;;;;;;;48.83;25.92;;;;;;;7.16;61.36;100971.06;5169087;28;20433;-49
2022/03/30 01:25:29;;;;;;;55.28;25.95;;;;;;;7.14;61.42;100971.19;5166434;28;20426;-46
2022/03/30 01:28:01;;;;;;;49.28;25.35;;;;;;;7.12;61.47;100961.75;5174520;28;20439;-48
2022/03/30 01:33:24;;;;;;;56.25;27.13;;;;;;;7.03;61.58;100946.75;5159692;28;20427;-51
2022/03/30 01:35:56;;;;;;;52.70;27.08;;;;;;;7.08;61.57;100960.34;5169286;28;20423;-49
2022/03/30 01:38:30;;;;;;;62.97;26.10;;;;;;;7.02;61.58;100955.59;5165316;28;20431;-52
2022/03/30 01:41:03;;;;;;;53.65;26.83;;;;;;;7.07;61.68;100948.19;5175426;28;20522;-47
2022/03/30 01:43:35;;;;;;;46.80;24.67;;;;;;;7.08;61.50;100949.84;5175570;28;20554;-45
2022/03/30 01:46:08;;;;;;;54.25;25.52;;;;;;;7.12;61.55;100956.50;5176454;28;20407;-50
2022/03/30 01:48:41;;;;;;;48.55;24.80;;;;;;;7.11;61.52;100944.34;5211556;28;20466;-49
2022/03/30 01:51:13;;;;;;;50.72;25.75;;;;;;;7.08;61.73;100947.22;5188243;28;20422;-46
2022/03/30 01:53:47;;;;;;;59.85;25.70;;;;;;;7.05;61.57;100931.69;5199364;28;20430;-45
2022/03/30 01:56:22;;;;;;;58.73;27.70;;;;;;;7.11;61.48;100939.91;5192706;28;20510;-46
2022/03/30 01:58:54;;;;;;;58.90;28.77;;;;;;;7.09;61.58;100933.09;5203076;28;20440;-47
2022/03/30 02:01:27;;;;;;;52.05;27.92;;;;;;;7.04;61.68;100928.25;5209679;28;20427;-52
2022/03/30 02:04:00;;;;;;;53.50;26.73;;;;;;;7.01;61.99;100922.41;5209540;28;20431;-50
2022/03/30 02:06:32;;;;;;;57.58;25.90;;;;;;;7.00;61.65;100918.09;5213212;28;20528;-47
2022/03/30 02:09:08;;;;;;;47.20;25.70;;;;;;;6.74;61.85;100873.81;5194538;28;20445;-51
2022/03/30 02:11:41;;;;;;;54.22;25.33;;;;;;;6.98;61.92;100910.38;5211233;28;20410;-51
2022/03/30 02:14:13;;;;;;;65.50;26.30;;;;;;;6.90;62.01;100902.25;5204594;28;20887;-46
2022/03/30 02:16:46;;;;;;;62.70;27.25;;;;;;;6.84;62.03;100890.47;5198962;28;20426;-49
2022/03/30 02:19:19;;;;;;;55.40;27.08;;;;;;;6.97;62.04;100910.47;5192620;28;20751;-46
2022/03/30 02:21:51;;;;;;;55.97;27.05;;;;;;;6.93;61.96;100909.91;5202775;28;21032;-46
2022/03/30 02:24:25;;;;;;;51.63;25.58;;;;;;;6.95;61.82;100901.91;5193862;28;20523;-49
2022/03/30 02:26:57;;;;;;;54.70;25.90;;;;;;;6.85;62.04;100886.91;5201542;28;20436;-46
2022/03/30 02:29:30;;;;;;;52.03;24.45;;;;;;;6.91;62.18;100893.44;5197692;28;20417;-46
2022/03/30 02:32:03;;;;;;;49.22;23.88;;;;;;;6.89;61.80;100892.72;5195163;28;20425;-52
2022/03/30 02:34:35;;;;;;;51.17;25.02;;;;;;;6.85;62.00;100881.66;5197098;28;20521;-56
2022/03/30 02:37:08;;;;;;;58.67;26.00;;;;;;;6.84;62.10;100889.63;5193396;28;20405;-48
2022/03/30 02:39:42;;;;;;;59.20;25.45;;;;;;;6.76;61.89;100869.28;5197407;28;20929;-50
2022/03/30 02:42:15;;;;;;;60.05;28.85;;;;;;;6.80;62.01;100873.31;5198157;28;20493;-50
2022/03/30 02:44:48;;;;;;;55.20;26.15;;;;;;;6.78;62.02;100880.50;5192095;28;20442;-48
2022/03/30 02:48:17;;;;;;;55.05;25.75;;;;;;;6.75;62.17;100875.50;5200048;28;20506;-48
2022/03/30 02:50:13;;;;;;;60.47;27.55;;;;;;;6.76;62.01;100876.31;5201407;28;20444;-46
2022/03/30 02:52:46;;;;;;;49.90;23.38;;;;;;;6.72;62.07;100869.63;5194597;28;20552;-53
2022/03/30 02:55:20;;;;;;;56.70;25.50;;;;;;;6.70;62.20;100875.84;5191507;28;20425;-55
2022/03/30 02:57:52;;;;;;;50.40;27.13;;;;;;;6.58;62.00;100865.50;5189400;28;20471;-48
2022/03/30 03:00:26;;;;;;;56.53;29.07;;;;;;;6.64;62.28;100870.25;5174768;28;20583;-46
2022/03/30 03:03:00;;;;;;;56.87;28.43;;;;;;;6.60;61.92;100871.47;5192503;28;20413;-48
2022/03/30 03:05:33;;;;;;;61.70;29.50;;;;;;;6.45;62.15;100842.88;5195939;28;21024;-51
2022/03/30 03:08:08;;;;;;;70.20;28.98;;;;;;;6.47;62.40;100851.47;5195745;28;20417;-46
2022/03/30 03:10:46;;;;;;;63.80;29.73;;;;;;;6.47;62.07;100853.22;5198967;28;20908;-47
2022/03/30 03:13:18;;;;;;;61.10;29.67;;;;;;;6.52;62.33;100864.19;5185038;28;20433;-47
2022/03/30 03:15:51;;;;;;;59.28;29.23;;;;;;;6.33;62.37;100835.97;5199528;28;20453;-49
2022/03/30 03:18:23;;;;;;;61.17;30.45;;;;;;;6.44;62.50;100854.34;5204210;28;21031;-47
2022/03/30 03:20:56;;;;;;;56.55;27.90;;;;;;;6.44;62.58;100856.09;5204647;28;20431;-50
2022/03/30 03:23:28;;;;;;;63.20;28.02;;;;;;;6.39;62.47;100847.78;5200892;28;20520;-47
2022/03/30 03:26:02;;;;;;;58.38;29.48;;;;;;;6.39;62.60;100848.59;5199761;28;20423;-49
2022/03/30 03:28:34;;;;;;;67.22;29.52;;;;;;;6.38;62.69;100856.59;5191341;28;20527;-48
2022/03/30 03:31:07;;;;;;;62.93;29.33;;;;;;;6.36;62.54;100850.66;5191596;28;21251;-50
2022/03/30 03:33:39;;;;;;;56.58;28.25;;;;;;;6.34;62.78;100849.94;5197993;28;20436;-48
2022/03/30 03:36:12;;;;;;;53.13;26.88;;;;;;;6.31;62.33;100848.38;5195448;28;20433;-50
2022/03/30 03:38:44;;;;;;;58.60;28.75;;;;;;;6.26;62.65;100847.94;5205228;28;20406;-46
2022/03/30 03:41:19;;;;;;;56.05;27.25;;;;;;;6.18;62.57;100835.41;5200135;28;20428;-49
2022/03/30 03:43:52;;;;;;;62.17;26.50;;;;;;;6.24;62.62;100840.16;5194405;28;20431;-53
2022/03/30 03:46:24;;;;;;;64.18;28.80;;;;;;;6.22;62.50;100841.25;5208925;28;20428;-47
2022/03/30 03:48:57;;;;;;;66.18;29.77;;;;;;;6.14;62.76;100827.91;5207467;28;20429;-48
2022/03/30 03:51:29;;;;;;;62.85;30.58;;;;;;;6.16;62.71;100839.09;5211491;28;20424;-45
2022/03/30 03:54:02;;;;;;;73.03;30.50;;;;;;;6.14;62.51;100838.41;5197683;28;20786;-46
2022/03/30 03:56:36;;;;;;;71.00;31.92;;;;;;;5.93;62.64;100807.66;5198267;28;20456;-46
2022/03/30 03:59:08;;;;;;;67.57;33.30;;;;;;;6.17;62.85;100840.78;5194972;28;20440;-48
2022/03/30 04:01:40;;;;;;;71.80;31.88;;;;;;;6.18;62.53;100827.53;5192652;28;20428;-51
2022/03/30 04:04:13;;;;;;;71.65;31.10;;;;;;;6.23;62.64;100832.44;5194795;28;20956;-49
2022/03/30 04:06:45;;;;;;;57.50;28.77;;;;;;;6.24;62.67;100828.84;5199369;28;20472;-50
2022/03/30 04:09:18;;;;;;;60.03;27.67;;;;;;;6.21;62.78;100834.34;5190907;28;20429;-49
2022/03/30 04:11:52;;;;;;;58.47;29.92;;;;;;;6.12;62.64;100819.31;5201164;28;20744;-56
2022/03/30 04:14:25;;;;;;;54.15;29.13;;;;;;;6.04;62.77;100813.84;5212467;28;20850;-47
2022/03/30 04:16:57;;;;;;;64.53;29.60;;;;;;;6.12;62.77;100832.44;5208846;28;20429;-53
2022/03/30 04:19:30;;;;;;;70.07;32.08;;;;;;;6.13;62.74;100831.47;5209463;28;20433;-55
2022/03/30 04:22:02;;;;;;;57.83;29.92;;;;;;;6.12;62.89;100835.88;5211639;28;20431;-49
2022/03/30 04:24:35;;;;;;;62.45;30.13;;;;;;;6.18;62.88;100831.97;5200816;28;20561;-47
2022/03/30 04:27:08;;;;;;;65.40;31.15;;;;;;;6.20;63.05;100828.25;5193698;28;20671;-46
2022/03/30 04:29:41;;;;;;;65.18;31.05;;;;;;;6.23;63.05;100832.44;5193221;28;20486;-46
2022/03/30 04:32:14;;;;;;;69.90;32.88;;;;;;;5.89;63.11;100763.47;5201188;28;20782;-47
2022/03/30 04:34:46;;;;;;;64.20;31.15;;;;;;;6.31;62.97;100824.78;5198195;28;20513;-47
2022/03/30 04:37:19;;;;;;;64.40;30.58;;;;;;;6.40;62.94;100824.03;5197014;28;20424;-50
2022/03/30 04:39:51;;;;;;;65.78;31.35;;;;;;;6.45;63.00;100821.06;5195148;28;20409;-48
2022/03/30 04:42:25;;;;;;;56.35;30.30;;;;;;;6.45;63.15;100816.63;5199661;28;20422;-46
2022/03/30 04:44:57;;;;;;;63.17;29.30;;;;;;;6.52;63.03;100814.34;5202328;28;20498;-49
2022/03/30 04:47:32;;;;;;;69.28;31.30;;;;;;;6.56;62.82;100809.69;5204653;28;20456;-47
2022/03/30 04:50:05;;;;;;;62.17;29.47;;;;;;;6.65;62.87;100811.56;5197812;28;20539;-49
2022/03/30 04:52:38;;;;;;;63.97;29.67;;;;;;;6.60;62.86;100798.00;5201956;28;20494;-56
2022/03/30 04:55:11;;;;;;;64.97;29.40;;;;;;;6.74;62.82;100808.19;5202793;28;20507;-46
2022/03/30 04:57:45;;;;;;;58.70;28.93;;;;;;;6.77;62.92;100810.56;5198211;28;20875;-49
2022/03/30 05:00:18;;;;;;;51.25;27.58;;;;;;;6.82;63.08;100812.81;5209812;28;20491;-46
2022/03/30 05:02:50;;;;;;;56.37;27.17;;;;;;;6.87;63.23;100811.47;5223423;28;20423;-49
2022/03/30 05:05:23;;;;;;;56.70;25.58;;;;;;;6.92;63.29;100806.66;5204213;28;20495;-49
2022/03/30 05:07:57;;;;;;;52.75;24.65;;;;;;;6.99;63.11;100804.38;5199058;28;20440;-47
2022/03/30 05:10:29;;;;;;;45.40;22.70;;;;;;;7.06;63.37;100812.56;5197808;28;20517;-47
2022/03/30 05:13:04;;;;;;;37.33;21.80;;;;;;;7.04;63.32;100796.13;5204535;28;20818;-50
2022/03/30 05:15:36;;;;;;;40.45;20.88;;;;;;;7.12;63.29;100806.81;5207547;28;20424;-47
2022/03/30 05:18:09;;;;;;;39.47;19.40;;;;;;;7.25;63.24;100799.56;5212452;28;20873;-47
2022/03/30 05:20:44;;;;;;;36.75;20.05;;;;;;;7.29;63.25;100795.72;5206790;28;20521;-52
2022/03/30 05:23:16;;;;;;;36.80;17.95;;;;;;;7.32;63.68;100795.47;5205153;28;20414;-49
2022/03/30 05:25:49;;;;;;;40.83;16.92;;;;;;;7.32;63.31;100795.47;5197087;28;20433;-48
2022/03/30 05:28:22;;;;;;;32.88;17.27;;;;;;;7.34;63.39;100785.66;5216971;28;20411;-47
2022/03/30 05:30:55;;;;;;;29.92;17.00;;;;;;;7.42;63.22;100794.69;5202873;28;20540;-46
2022/03/30 05:33:27;;;;;;;26.50;15.85;;;;;;;7.45;63.54;100794.41;5192561;28;22010;-52
2022/03/30 05:36:00;;;;;;;31.83;17.30;;;;;;;7.48;63.53;100795.00;5203394;28;20471;-46
2022/03/30 05:38:34;;;;;;;36.05;17.23;;;;;;;7.51;63.37;100781.59;5202375;28;20524;-51
2022/03/30 05:41:07;;;;;;;30.58;15.80;;;;;;;7.51;63.34;100788.66;5203176;28;20466;-50
2022/03/30 05:43:41;;;;;;;23.50;13.73;;;;;;;7.60;63.50;100788.69;5191025;28;20487;-45
2022/03/30 05:46:13;;;;;;;34.72;15.00;;;;;;;7.62;63.66;100786.78;5208931;28;20431;-47
2022/03/30 05:48:46;;;;;;;27.50;14.30;;;;;;;7.67;63.43;100789.00;5214626;28;20425;-52
2022/03/30 05:51:18;;;;;;;22.23;13.25;;;;;;;7.68;63.79;100779.31;5205476;28;20888;-46
2022/03/30 05:53:51;;;;;;;26.13;12.93;;;;;;;7.71;63.65;100782.53;5199997;28;20778;-45
2022/03/30 05:57:00;;;;;;;24.33;12.07;;;;;;;7.77;63.82;100789.03;5202013;28;20439;-51
2022/03/30 05:59:20;;;;;;;19.17;11.75;;;;;;;7.68;63.61;100758.28;5197358;28;20790;-53
2022/03/30 06:01:52;;;;;;;15.52;9.63;;;;;;;7.79;63.46;100761.63;5194326;28;20512;-49
2022/03/30 06:04:25;;;;;;;14.82;9.65;;;;;;;7.92;63.63;100786.88;5199096;28;20471;-50
2022/03/30 06:06:58;;;;;;;13.83;8.57;;;;;;;7.83;63.55;100773.56;5188157;28;20433;-50
2022/03/30 06:09:33;;;;;;;13.63;7.88;;;;;;;7.84;63.71;100769.13;5197220;28;20526;-49
2022/03/30 06:12:07;;;;;;;10.68;7.15;;;;;;;7.98;63.61;100786.31;5207957;28;20458;-47
2022/03/30 06:14:41;;;;;;;12.13;6.22;;;;;;;8.05;63.55;100792.72;5202952;28;20560;-49
2022/03/30 06:17:17;;;;;;;9.05;5.32;;;;;;;8.05;63.48;100790.06;5205598;28;20929;-50
2022/03/30 06:19:52;;;;;;;10.70;5.93;;;;;;;8.01;63.77;100783.44;5207085;28;20417;-52
2022/03/30 06:22:29;;;;;;;8.65;5.30;;;;;;;7.95;63.81;100776.06;5206934;28;20441;-53
2022/03/30 06:25:02;;;;;;;8.88;5.28;;;;;;;8.03;63.88;100794.66;5207916;28;20511;-56
2022/03/30 06:27:35;;;;;;;7.20;4.00;;;;;;;7.98;63.98;100788.97;5174321;28;20906;-52
2022/03/30 06:30:11;;;;;;;5.77;4.07;;;;;;;7.98;63.99;100792.41;5198116;28;23755;-48
2022/03/30 06:32:49;;;;;;;4.72;3.47;;;;;;;7.94;64.36;100791.03;5211455;28;20497;-53
2022/03/30 06:35:24;;;;;;;7.22;3.40;;;;;;;7.34;64.08;100724.38;5204139;28;20800;-53
2022/03/30 06:37:57;;;;;;;5.68;3.33;;;;;;;8.06;64.14;100789.97;5218953;28;20428;-47
2022/03/30 06:40:29;;;;;;;7.50;3.30;;;;;;;8.13;64.12;100800.78;5196483;28;20838;-53
2022/03/30 06:43:02;;;;;;;9.30;3.33;;;;;;;8.12;64.23;100799.13;5201582;28;20512;-51
2022/03/30 06:45:35;;;;;;;7.40;3.88;;;;;;;8.05;64.10;100792.72;5203452;28;20556;-57
2022/03/30 06:48:08;;;;;;;4.70;3.15;;;;;;;8.16;64.04;100800.50;5199940;28;20429;-50
2022/03/30 06:50:41;;;;;;;4.72;3.40;;;;;;;8.21;63.92;100803.56;5225529;28;20503;-50
2022/03/30 06:53:13;;;;;;;6.35;3.55;;;;;;;8.14;63.85;100773.47;5215740;28;20833;-47
2022/03/30 06:55:46;;;;;;;6.63;3.50;;;;;;;8.37;63.90;100799.56;5211143;28;20486;-48
2022/03/30 06:58:18;;;;;;;5.13;3.17;;;;;;;8.42;63.40;100795.56;5186239;28;20483;-49
2022/03/30 07:00:53;;;;;;;13.98;6.00;;;;;;;8.50;63.46;100792.28;5195010;28;20433;-47
2022/03/30 07:03:26;;;;;;;5.63;3.60;;;;;;;8.55;63.46;100795.34;5199720;28;20409;-51
2022/03/30 07:06:00;;;;;;;5.40;3.85;;;;;;;8.61;63.43;100794.78;5191762;28;20764;-48
2022/03/30 07:11:22;;;;;;;3.50;2.50;;;;;;;9.56;62.37;100791.28;5197203;28;20413;-50
2022/03/30 07:13:57;;;;;;;4.57;2.65;;;;;;;10.18;61.96;100791.53;5203488;28;20777;-49
2022/03/30 07:16:30;;;;;;;4.35;2.17;;;;;;;10.86;61.12;100775.22;5196472;28;20421;-54
2022/03/30 07:19:03;;;;;;;2.72;2.10;;;;;;;11.64;60.30;100791.09;5210568;28;20412;-50
2022/03/30 07:21:35;;;;;;;3.05;1.77;;;;;;;11.92;59.89;100786.47;5185381;28;20429;-51
2022/03/30 07:24:08;;;;;;;3.60;1.70;;;;;;;12.09;59.76;100783.88;5191651;28;20836;-48
2022/03/30 07:26:43;;;;;;;3.42;2.10;;;;;;;12.28;59.30;100782.75;5197042;28;20411;-46
2022/03/30 07:29:18;;;;;;;5.63;1.93;;;;;;;12.43;58.88;100787.25;5208364;28;20517;-49
2022/03/30 07:31:52;;;;;;;2.30;1.60;;;;;;;12.74;58.27;100783.97;5198428;28;20423;-54
2022/03/30 07:34:24;;;;;;;4.15;1.73;;;;;;;12.86;57.74;100756.16;5193094;28;20783;-56
2022/03/30 07:36:57;;;;;;;1.98;1.50;;;;;;;13.34;57.15;100769.53;5198129;28;20802;-52
2022/03/30 07:39:29;;;;;;;5.93;1.60;;;;;;;13.69;56.39;100770.94;5204448;28;20502;-53
2022/03/30 07:42:01;;;;;;;3.13;1.42;;;;;;;14.12;55.58;100768.75;5194740;28;20992;-48
2022/03/30 07:44:34;;;;;;;2.50;1.52;;;;;;;14.19;55.24;100769.69;5196797;28;21057;-45
2022/03/30 07:47:08;;;;;;;4.25;1.92;;;;;;;13.95;55.14;100767.16;5220703;28;20491;-47
2022/03/30 07:49:41;;;;;;;2.78;1.83;;;;;;;13.45;55.13;100771.00;5205921;28;20407;-48
2022/03/30 07:52:13;;;;;;;2.97;1.70;;;;;;;13.29;55.21;100761.25;5208363;28;20511;-49
2022/03/30 07:54:46;;;;;;;2.85;1.80;;;;;;;13.25;55.00;100766.06;5218607;28;20406;-49
2022/03/30 07:57:20;;;;;;;2.60;2.10;;;;;;;13.00;54.95;100772.38;5193420;28;20857;-48
2022/03/30 07:59:53;;;;;;;3.03;1.95;;;;;;;12.71;54.96;100763.09;5194987;28;20893;-47
2022/03/30 08:02:28;;;;;;;5.60;2.55;;;;;;;12.52;55.02;100763.44;5204331;28;20428;-50
2022/03/30 08:05:01;;;;;;;3.33;1.87;;;;;;;12.39;54.83;100761.28;5204128;28;20427;-54
2022/03/30 08:07:34;;;;;;;3.38;2.05;;;;;;;12.15;55.04;100762.88;5205374;28;20846;-51
2022/03/30 08:10:09;;;;;;;4.03;2.57;;;;;;;12.02;55.18;100777.56;5204689;28;20893;-52
2022/03/30 08:12:42;;;;;;;5.32;2.10;;;;;;;11.49;55.15;100732.69;5204150;28;20424;-46
2022/03/30 08:15:15;;;;;;;4.63;2.67;;;;;;;11.54;55.23;100759.47;5207147;28;20415;-47
2022/03/30 08:17:50;;;;;;;6.85;2.53;;;;;;;11.48;55.16;100770.66;5206837;28;20505;-52
2022/03/30 08:23:13;;;;;;;4.70;2.63;;;;;;;11.52;54.91;100761.47;5202889;28;20488;-52
2022/03/30 08:25:45;;;;;;;6.38;2.22;;;;;;;11.51;55.10;100762.41;5193038;28;20710;-46
2022/03/30 08:28:18;;;;;;;5.00;2.50;;;;;;;11.46;54.74;100751.50;5199291;28;20521;-45
2022/03/30 08:30:50;;;;;;;2.97;2.25;;;;;;;11.37;54.62;100757.75;5206671;28;20555;-50
2022/03/30 08:33:26;;;;;;;2.67;1.90;;;;;;;11.52;54.52;100766.75;5202091;28;20497;-50
2022/03/30 08:35:59;;;;;;;2.15;1.90;;;;;;;11.63;54.25;100756.88;5196743;28;20452;-51
2022/03/30 08:38:32;;;;;;;4.00;2.67;;;;;;;11.30;53.83;100703.81;5190930;28;20454;-49
2022/03/30 08:41:05;;;;;;;5.10;2.20;;;;;;;11.82;53.79;100756.59;5192888;28;20565;-51
2022/03/30 08:43:37;;;;;;;3.47;2.33;;;;;;;11.78;53.94;100760.56;5200564;28;20418;-47
2022/03/30 08:46:10;;;;;;;5.37;2.27;;;;;;;11.84;53.84;100751.16;5205392;28;20965;-50
2022/03/30 08:48:44;;;;;;;5.43;2.15;;;;;;;11.69;53.87;100745.66;5226332;28;20496;-50
2022/03/30 08:51:21;;;;;;;5.03;2.58;;;;;;;11.59;53.76;100750.25;5215439;28;20438;-55
2022/03/30 08:53:53;;;;;;;3.53;1.95;;;;;;;11.80;53.59;100742.72;5207121;28;20419;-50
2022/03/30 08:56:28;;;;;;;3.95;2.65;;;;;;;11.94;53.36;100744.78;5199295;28;20462;-51
2022/03/30 08:59:04;;;;;;;4.13;2.20;;;;;;;12.00;53.27;100738.84;5213204;28;20465;-51
2022/03/30 09:01:39;;;;;;;4.78;1.90;;;;;;;12.15;53.03;100733.75;5227594;28;20767;-50
2022/03/30 09:04:15;;;;;;;2.67;1.70;;;;;;;12.44;52.97;100740.41;5197153;28;20465;-50
2022/03/30 09:06:49;;;;;;;2.75;1.80;;;;;;;12.74;52.44;100749.53;5209730;28;20511;-51
2022/03/30 09:09:31;;;;;;;1.70;1.42;;;;;;;12.75;52.38;100740.56;5205549;28;20425;-54
2022/03/30 09:12:09;;;;;;;2.50;1.63;;;;;;;12.71;52.28;100747.22;5210263;28;20484;-54
2022/03/30 09:14:42;;;;;;;3.15;2.00;;;;;;;12.44;52.35;100746.53;5214503;28;20446;-49
2022/03/30 09:17:15;;;;;;;2.70;2.00;;;;;;;12.22;52.35;100753.28;5211678;28;20469;-55
2022/03/30 09:19:53;;;;;;;3.00;1.60;;;;;;;11.88;52.28;100741.94;5195607;28;20911;-48
2022/03/30 09:22:28;;;;;;;5.28;2.92;;;;;;;11.67;52.59;100743.16;5193055;28;20923;-47
2022/03/30 09:25:02;;;;;;;4.35;2.17;;;;;;;11.60;52.60;100755.34;5207946;28;21009;-48
2022/03/30 09:27:39;;;;;;;3.75;1.67;;;;;;;11.56;52.49;100759.31;5194994;28;20962;-54
2022/03/30 09:30:15;;;;;;;5.07;2.40;;;;;;;11.40;52.44;100746.84;5201761;28;20427;-50
2022/03/30 09:32:51;;;;;;;2.88;1.80;;;;;;;11.46;52.25;100764.72;5201784;28;20417;-51
2022/03/30 09:35:30;;;;;;;2.28;1.77;;;;;;;11.43;52.26;100761.56;5195316;28;20411;-47
2022/03/30 09:38:06;;;;;;;2.58;1.50;;;;;;;11.49;52.14;100761.78;5205508;28;20430;-51
2022/03/30 09:40:43;;;;;;;5.20;1.95;;;;;;;11.47;51.99;100762.91;5208426;28;20494;-51
2022/03/30 09:43:22;;;;;;;3.30;1.90;;;;;;;11.17;51.95;100720.09;5215367;28;20431;-50
2022/03/30 09:46:08;;;;;;;6.60;1.80;;;;;;;11.37;51.86;100760.38;5209236;28;20601;-49
2022/03/30 09:48:49;;;;;;;5.45;1.65;;;;;;;11.51;51.64;100758.94;5207961;28;20421;-48
2022/03/30 09:51:27;;;;;;;5.05;1.63;;;;;;;11.38;51.54;100726.84;5214565;28;20603;-50
2022/03/30 09:54:00;;;;;;;2.73;1.30;;;;;;;11.46;51.42;100751.50;5223136;28;20445;-50
2022/03/30 09:56:39;;;;;;;5.47;2.00;;;;;;;11.38;51.51;100748.81;5208795;28;20410;-47
2022/03/30 09:59:11;;;;;;;4.00;1.88;;;;;;;11.50;51.17;100736.97;5191396;28;20437;-50
2022/03/30 10:01:46;;;;;;;4.05;1.30;;;;;;;11.72;51.01;100734.75;5193463;28;20510;-54
2022/03/30 10:04:19;;;;;;;2.92;1.50;;;;;;;11.83;50.69;100737.13;5206210;28;20984;-43
2022/03/30 10:06:53;;;;;;;4.43;1.80;;;;;;;11.70;50.72;100742.00;5206670;28;20464;-47
2022/03/30 10:09:25;;;;;;;6.65;1.80;;;;;;;11.62;50.66;100734.06;5202794;28;20505;-55
2022/03/30 10:11:57;;;;;;;2.35;1.38;;;;;;;11.62;50.76;100736.69;5227864;28;20434;-50
2022/03/30 10:14:30;;;;;;;2.93;1.40;;;;;;;11.59;50.61;100729.09;5209161;28;20570;-58
2022/03/30 10:17:03;;;;;;;8.80;2.50;;;;;;;11.35;50.76;100722.69;5216375;28;20558;-46
2022/03/30 10:19:37;;;;;;;4.57;2.05;;;;;;;11.12;51.07;100729.47;5210299;28;20756;-51
2022/03/30 10:22:29;;;;;;;5.70;1.95;;;;;;;11.24;51.02;100733.50;5208668;28;20436;-49
2022/03/30 10:25:14;;;;;;;7.85;2.00;;;;;;;11.45;50.53;100726.03;5202115;28;20500;-48
2022/03/30 10:27:55;;;;;;;6.40;1.70;;;;;;;11.58;50.47;100714.19;5206462;28;20443;-47
2022/03/30 10:30:31;;;;;;;3.92;1.98;;;;;;;11.64;50.43;100718.84;5199408;28;20443;-50
2022/03/30 10:33:05;;;;;;;3.63;1.58;;;;;;;11.61;50.47;100717.34;5196125;28;20510;-48
2022/03/30 10:35:43;;;;;;;4.57;1.73;;;;;;;11.62;50.31;100726.13;5194229;28;20784;-52
2022/03/30 10:38:18;;;;;;;4.63;1.48;;;;;;;11.60;50.42;100726.25;5206047;28;20534;-48
2022/03/30 10:41:10;;;;;;;3.35;1.65;;;;;;;11.74;50.10;100717.72;5188019;28;20409;-50
2022/03/30 10:43:42;;;;;;;4.97;1.60;;;;;;;11.85;50.07;100716.63;5195524;28;20431;-51
2022/03/30 10:46:15;;;;;;;4.47;1.30;;;;;;;12.06;50.01;100715.38;5193630;28;20425;-50
2022/03/30 10:48:48;;;;;;;4.65;1.60;;;;;;;12.17;49.49;100712.38;5191632;28;20429;-50
2022/03/30 10:51:21;;;;;;;4.85;1.38;;;;;;;12.26;49.38;100710.59;5209357;28;20760;-51
2022/03/30 10:53:54;;;;;;;3.80;1.55;;;;;;;12.26;49.10;100714.06;5201738;28;20419;-51
2022/03/30 10:56:36;;;;;;;4.22;1.60;;;;;;;12.22;49.06;100715.38;5201754;28;20490;-51
2022/03/30 10:59:14;;;;;;;5.55;1.42;;;;;;;12.20;48.94;100710.28;5205174;28;31301;-55
2022/03/30 11:01:49;;;;;;;3.50;1.52;;;;;;;12.14;48.93;100724.16;5202978;28;20506;-47
2022/03/30 11:04:26;;;;;;;2.45;1.30;;;;;;;12.09;48.84;100715.88;5206433;28;20422;-48
2022/03/30 11:07:41;;;;;;;6.37;1.53;;;;;;;12.33;48.59;100709.78;5203164;28;20432;-46
2022/03/30 11:10:27;;;;;;;5.32;1.90;;;;;;;12.45;48.20;100700.53;5203896;28;20418;-54
2022/03/30 11:13:13;;;;;;;3.95;1.33;;;;;;;12.56;48.01;100699.34;5220683;28;20435;-50
2022/03/30 11:16:12;;;;;;;4.38;1.40;;;;;;;12.39;48.23;100690.59;5211205;28;20838;-51
2022/03/30 11:19:11;;;;;;;4.50;1.50;;;;;;;11.98;48.52;100682.59;5201508;28;20409;-51
2022/03/30 11:21:55;;;;;;;3.15;1.70;;;;;;;11.87;48.59;100688.19;5155983;28;20434;-48
2022/03/30 11:24:30;;;;;;;3.88;1.80;;;;;;;11.94;48.47;100681.25;5206342;28;20777;-51
2022/03/30 11:27:23;;;;;;;4.68;1.90;;;;;;;12.03;48.24;100668.88;5215926;28;20427;-49
2022/03/30 11:30:13;;;;;;;8.40;1.45;;;;;;;12.28;48.10;100667.06;5212087;28;20478;-53
2022/03/30 11:33:22;;;;;;;8.80;2.50;;;;;;;12.41;47.79;100671.88;5216323;28;20834;-54
2022/03/30 11:35:57;;;;;;;6.25;1.83;;;;;;;12.38;47.89;100672.19;5195717;28;20445;-47
2022/03/30 11:38:37;;;;;;;3.40;1.67;;;;;;;12.27;47.98;100667.25;5222077;28;20431;-49
2022/03/30 11:41:12;;;;;;;5.07;1.52;;;;;;;12.20;47.92;100672.34;5201282;28;20419;-52
2022/03/30 11:46:39;;;;;;;4.13;1.70;;;;;;;12.09;48.02;100662.09;5201927;28;24972;-49
2022/03/30 11:49:13;;;;;;;5.57;1.83;;;;;;;12.19;47.89;100653.00;5196797;28;20445;-50
2022/03/30 11:51:45;;;;;;;3.80;1.83;;;;;;;12.44;47.61;100660.94;5212386;28;20532;-50
2022/03/30 11:54:21;;;;;;;4.82;1.73;;;;;;;12.53;47.39;100664.41;5213834;28;20903;-53
2022/03/30 11:56:54;;;;;;;4.18;1.63;;;;;;;12.42;47.48;100650.53;5205097;28;20437;-50
2022/03/30 11:59:28;;;;;;;4.03;1.83;;;;;;;12.56;47.32;100642.91;5189469;28;20425;-50
2022/03/30 12:02:03;;;;;;;5.90;1.70;;;;;;;12.60;47.07;100641.56;5193629;28;20429;-52
2022/03/30 12:04:36;;;;;;;4.65;1.70;;;;;;;12.52;47.24;100649.53;5187019;28;20456;-53
2022/03/30 12:07:15;;;;;;;7.75;2.05;;;;;;;12.55;47.04;100642.06;5202726;28;27605;-51